Time;durP1;ratioP1;P1;durP2;ratioP2;P2;SDS_P1;SDS_P2;PMS_P1;PMS_P2;Temp;Humidity;BMP_temperature;BMP_pressure;BME280_temperature;BME280_humidity;BME280_pressure;Samples;Min_cycle;Max_cycle;Signal;HPM_P1;HPM_P2
2024/02/22 00:00:02;;;;;;;1.95;1.00;;;;;;;8.87;100.00;95241.97;1034580;28;20457;-64
2024/02/22 00:00:32;;;;;;;2.88;0.77;;;;;;;8.82;100.00;95233.34;1031133;28;20034;-63
2024/02/22 00:01:03;;;;;;;0.90;0.77;;;;;;;8.80;100.00;95238.06;1031120;28;20096;-63
2024/02/22 00:01:33;;;;;;;1.60;1.00;;;;;;;8.74;100.00;95240.69;1031391;28;20023;-63
2024/02/22 00:02:04;;;;;;;3.72;1.20;;;;;;;8.71;100.00;95235.97;1039338;28;20021;-63
2024/02/22 00:02:35;;;;;;;1.75;1.05;;;;;;;8.69;100.00;95240.69;1037388;28;20022;-63
2024/02/22 00:03:06;;;;;;;1.00;0.80;;;;;;;8.68;100.00;95241.72;1039165;28;20025;-64
2024/02/22 00:03:37;;;;;;;1.02;0.77;;;;;;;8.68;100.00;95243.56;1038761;28;20024;-64
2024/02/22 00:04:08;;;;;;;1.05;0.70;;;;;;;8.66;100.00;95236.00;1035381;28;20594;-64
2024/02/22 00:04:39;;;;;;;2.08;0.80;;;;;;;8.66;100.00;95243.84;1039483;28;20033;-64
2024/02/22 00:05:09;;;;;;;3.38;1.20;;;;;;;8.64;100.00;95238.06;1043261;28;20598;-63
2024/02/22 00:05:40;;;;;;;2.05;0.82;;;;;;;8.62;100.00;95232.34;1042990;28;20095;-63
2024/02/22 00:06:10;;;;;;;2.30;0.82;;;;;;;8.62;100.00;95231.56;1043369;28;20021;-62
2024/02/22 00:06:41;;;;;;;1.00;0.63;;;;;;;8.64;100.00;95232.06;1037369;28;20476;-64
2024/02/22 00:07:14;;;;;;;3.15;0.80;;;;;;;8.63;100.00;95223.44;1039094;28;20017;-63
2024/02/22 00:07:44;;;;;;;2.63;1.02;;;;;;;8.72;100.00;95224.47;1038738;28;20025;-62
2024/02/22 00:08:15;;;;;;;1.27;0.80;;;;;;;8.79;100.00;95233.91;1039589;28;20036;-63
2024/02/22 00:08:45;;;;;;;1.02;0.80;;;;;;;8.83;100.00;95224.47;1043281;28;20024;-63
2024/02/22 00:09:15;;;;;;;1.58;0.65;;;;;;;8.82;100.00;95222.88;1043220;28;20028;-63
2024/02/22 00:09:46;;;;;;;3.33;0.85;;;;;;;8.82;100.00;95218.47;1041704;28;20102;-62
2024/02/22 00:10:17;;;;;;;1.40;0.80;;;;;;;8.80;100.00;95225.00;1034498;28;20034;-63
2024/02/22 00:10:47;;;;;;;1.33;0.70;;;;;;;8.78;100.00;95214.78;1034623;28;20045;-64
2024/02/22 00:11:18;;;;;;;3.03;0.77;;;;;;;8.84;100.00;95211.13;1037959;28;20048;-64
2024/02/22 00:11:48;;;;;;;1.67;0.88;;;;;;;8.94;100.00;95220.78;1035341;28;20068;-64
2024/02/22 00:12:19;;;;;;;0.65;0.55;;;;;;;8.96;100.00;95218.69;1040635;28;21501;-64
2024/02/22 00:12:49;;;;;;;1.95;0.88;;;;;;;8.99;100.00;95223.41;1039187;28;20037;-63
2024/02/22 00:13:20;;;;;;;1.00;0.70;;;;;;;9.00;100.00;95224.97;1039390;28;20405;-63
2024/02/22 00:13:51;;;;;;;1.60;1.25;;;;;;;8.99;100.00;95226.03;1038935;28;20200;-62
2024/02/22 00:14:25;;;;;;;3.70;1.00;;;;;;;8.93;100.00;95222.63;1039372;28;20049;-63
2024/02/22 00:14:55;;;;;;;1.08;0.70;;;;;;;8.95;100.00;95225.75;1043279;28;20025;-63
2024/02/22 00:15:26;;;;;;;1.55;0.93;;;;;;;8.99;100.00;95223.41;1043271;28;20041;-61
2024/02/22 00:15:56;;;;;;;1.08;0.70;;;;;;;8.97;100.00;95205.34;1043623;28;20033;-61
2024/02/22 00:16:27;;;;;;;0.95;0.70;;;;;;;9.05;100.00;95211.06;1043513;28;20032;-63
2024/02/22 00:16:57;;;;;;;1.98;1.00;;;;;;;9.15;100.00;95209.22;1043467;28;20035;-64
2024/02/22 00:17:28;;;;;;;0.70;0.60;;;;;;;9.17;100.00;95199.25;1043012;28;20024;-64
2024/02/22 00:17:58;;;;;;;1.58;0.60;;;;;;;9.32;100.00;95201.06;1043190;28;20078;-63
2024/02/22 00:18:30;;;;;;;2.05;0.70;;;;;;;9.34;100.00;95198.16;1039153;28;20127;-64
2024/02/22 00:19:00;;;;;;;1.20;0.60;;;;;;;9.39;100.00;95192.94;1034956;28;20096;-63
2024/02/22 00:19:31;;;;;;;0.68;0.50;;;;;;;9.39;100.00;95191.09;1035045;28;20482;-61
2024/02/22 00:20:02;;;;;;;0.63;0.60;;;;;;;9.36;100.00;95193.47;1031007;28;20062;-63
2024/02/22 00:20:33;;;;;;;1.40;0.60;;;;;;;9.40;100.00;95199.72;1031152;28;20026;-64
2024/02/22 00:21:03;;;;;;;0.65;0.60;;;;;;;9.47;100.00;95202.84;1034975;28;20026;-64
2024/02/22 00:21:35;;;;;;;0.50;0.50;;;;;;;9.61;100.00;95197.78;1035051;28;20033;-62
2024/02/22 00:22:05;;;;;;;1.42;0.60;;;;;;;9.63;100.00;95198.31;1035414;28;20040;-63
2024/02/22 00:22:39;;;;;;;1.45;0.73;;;;;;;9.62;100.00;95192.31;1039301;28;20033;-63
2024/02/22 00:23:10;;;;;;;1.00;0.60;;;;;;;9.84;100.00;95209.47;1043417;28;20461;-63
2024/02/22 00:23:40;;;;;;;0.50;0.50;;;;;;;9.93;100.00;95194.75;1043815;28;20029;-64
2024/02/22 00:24:11;;;;;;;1.70;0.60;;;;;;;9.96;100.00;95188.97;1043935;28;20645;-63
2024/02/22 00:24:41;;;;;;;1.83;0.70;;;;;;;10.01;100.00;95188.94;1043850;28;20033;-63
2024/02/22 00:25:12;;;;;;;0.85;0.47;;;;;;;10.01;100.00;95183.69;1044252;28;20028;-64
2024/02/22 00:25:42;;;;;;;0.55;0.55;;;;;;;10.02;100.00;95190.47;1043207;28;20029;-64
2024/02/22 00:26:13;;;;;;;0.60;0.50;;;;;;;9.99;100.00;95193.66;1043496;28;20131;-63
2024/02/22 00:26:45;;;;;;;0.60;0.60;;;;;;;10.00;100.00;95184.75;1043424;28;20047;-64
2024/02/22 00:27:15;;;;;;;1.70;0.60;;;;;;;9.93;100.00;95188.72;1039451;28;20029;-63
2024/02/22 00:27:46;;;;;;;0.80;0.50;;;;;;;9.91;100.00;95208.13;1035072;28;20049;-63
2024/02/22 00:28:17;;;;;;;0.57;0.50;;;;;;;10.06;100.00;95181.03;1035386;28;20030;-60
2024/02/22 00:28:47;;;;;;;2.33;0.40;;;;;;;10.04;100.00;95175.28;1034855;28;20041;-63
2024/02/22 00:29:17;;;;;;;0.77;0.30;;;;;;;10.11;100.00;95170.50;1031169;28;20037;-63
2024/02/22 00:29:48;;;;;;;1.23;0.60;;;;;;;10.11;100.00;95175.75;1034949;28;20045;-63
2024/02/22 00:30:20;;;;;;;0.75;0.52;;;;;;;10.20;100.00;95193.53;1034539;28;20076;-63
2024/02/22 00:30:50;;;;;;;0.90;0.65;;;;;;;10.26;100.00;95171.47;1035599;28;20036;-63
2024/02/22 00:31:21;;;;;;;0.68;0.40;;;;;;;10.34;100.00;95181.38;1043198;28;20687;-63
2024/02/22 00:31:51;;;;;;;0.40;0.40;;;;;;;10.46;100.00;95173.16;1043106;28;20024;-63
2024/02/22 00:32:21;;;;;;;0.52;0.43;;;;;;;10.50;100.00;95167.09;1043318;28;20075;-64
2024/02/22 00:32:52;;;;;;;0.30;0.30;;;;;;;10.51;100.00;95155.53;1043250;28;20033;-63
2024/02/22 00:33:22;;;;;;;1.25;0.65;;;;;;;10.49;100.00;95155.03;1043265;28;20025;-63
2024/02/22 00:33:53;;;;;;;1.13;0.50;;;;;;;10.58;100.00;95153.38;1039165;28;20037;-63
2024/02/22 00:34:24;;;;;;;0.40;0.40;;;;;;;10.64;100.00;95153.34;1038354;28;20038;-63
2024/02/22 00:34:54;;;;;;;0.82;0.40;;;;;;;10.66;100.00;95143.34;1039159;28;20559;-62
2024/02/22 00:35:25;;;;;;;0.65;0.40;;;;;;;10.69;100.00;95143.56;1039000;28;20037;-63
2024/02/22 00:35:55;;;;;;;1.52;0.52;;;;;;;10.71;100.00;95145.94;1039026;28;20374;-63
2024/02/22 00:36:26;;;;;;;1.10;0.50;;;;;;;10.75;100.00;95149.56;1040415;28;20037;-63
2024/02/22 00:36:56;;;;;;;4.95;0.47;;;;;;;10.66;100.00;95146.72;1043408;28;20036;-62
2024/02/22 00:37:27;;;;;;;0.45;0.43;;;;;;;10.71;100.00;95143.31;1043572;28;20299;-62
2024/02/22 00:37:57;;;;;;;2.13;0.63;;;;;;;10.65;100.00;95142.56;1038894;28;20394;-62
2024/02/22 00:38:28;;;;;;;4.53;0.55;;;;;;;10.64;100.00;95141.00;1034130;28;20030;-63
2024/02/22 00:38:58;;;;;;;1.23;0.60;;;;;;;10.63;100.00;95144.69;1030704;28;20038;-63
2024/02/22 00:39:29;;;;;;;0.75;0.40;;;;;;;10.67;100.00;95140.44;1026857;28;20050;-62
2024/02/22 00:39:59;;;;;;;0.55;0.45;;;;;;;10.76;100.00;95132.75;1034063;28;20850;-61
2024/02/22 00:40:30;;;;;;;0.85;0.40;;;;;;;10.73;100.00;95149.03;1034942;28;20049;-62
2024/02/22 00:41:00;;;;;;;0.30;0.30;;;;;;;10.69;100.00;95130.44;1038708;28;20038;-63
2024/02/22 00:41:31;;;;;;;1.52;0.70;;;;;;;10.82;100.00;95134.25;1040769;28;20053;-63
2024/02/22 00:42:01;;;;;;;1.23;0.55;;;;;;;10.79;100.00;95132.97;1043393;28;20421;-63
2024/02/22 00:42:32;;;;;;;1.30;0.50;;;;;;;10.83;100.00;95138.44;1043499;28;20025;-64
2024/02/22 00:43:02;;;;;;;0.57;0.57;;;;;;;10.88;100.00;95145.50;1039078;28;20749;-64
2024/02/22 00:43:33;;;;;;;1.02;0.70;;;;;;;10.88;100.00;95132.38;1030890;28;20263;-63
2024/02/22 00:44:07;;;;;;;0.38;0.38;;;;;;;10.91;100.00;95142.31;1031089;28;20025;-63
2024/02/22 00:44:37;;;;;;;0.50;0.40;;;;;;;10.90;100.00;95123.16;1032070;28;20584;-62
2024/02/22 00:45:11;;;;;;;0.70;0.50;;;;;;;10.89;100.00;95126.81;1039256;28;20104;-63
2024/02/22 00:45:41;;;;;;;1.38;0.40;;;;;;;10.98;100.00;95106.00;1043366;28;20025;-63
2024/02/22 00:46:12;;;;;;;0.65;0.60;;;;;;;10.94;100.00;95128.63;1043189;28;20424;-63
2024/02/22 00:46:42;;;;;;;1.98;0.70;;;;;;;10.90;100.00;95115.28;1038765;28;20025;-62
2024/02/22 00:47:13;;;;;;;0.30;0.30;;;;;;;10.91;100.00;95116.84;1039175;28;20010;-62
2024/02/22 00:47:43;;;;;;;0.38;0.30;;;;;;;11.02;100.00;95135.88;1042398;28;20029;-62
2024/02/22 00:48:13;;;;;;;0.32;0.32;;;;;;;11.07;100.00;95106.97;1043144;28;20021;-62
2024/02/22 00:48:44;;;;;;;0.50;0.47;;;;;;;11.07;100.00;95112.22;1043173;28;20039;-63
2024/02/22 00:49:14;;;;;;;4.63;0.40;;;;;;;11.02;100.00;95115.66;1043518;28;20028;-63
2024/02/22 00:49:45;;;;;;;1.60;0.50;;;;;;;11.03;100.00;95116.44;1043731;28;20067;-63
2024/02/22 00:50:15;;;;;;;0.77;0.50;;;;;;;11.00;100.00;95106.50;1040077;28;20473;-63
2024/02/22 00:50:46;;;;;;;0.73;0.43;;;;;;;10.99;100.00;95108.34;1042898;28;20021;-62
2024/02/22 00:51:16;;;;;;;1.23;0.40;;;;;;;10.94;100.00;95108.41;1043596;28;20021;-61
2024/02/22 00:51:47;;;;;;;0.55;0.40;;;;;;;10.97;100.00;95118.34;1046196;28;20773;-63
2024/02/22 00:52:17;;;;;;;1.30;0.50;;;;;;;11.06;100.00;95119.28;1043271;28;20103;-61
2024/02/22 00:52:50;;;;;;;0.43;0.35;;;;;;;11.07;100.00;95120.88;1043334;28;20029;-63
2024/02/22 00:53:22;;;;;;;1.25;0.63;;;;;;;11.04;100.00;95113.53;1043286;28;20017;-64
2024/02/22 00:53:52;;;;;;;1.85;0.45;;;;;;;11.01;100.00;95118.56;1035120;28;20014;-63
2024/02/22 00:54:23;;;;;;;0.45;0.30;;;;;;;11.05;100.00;95104.59;1035595;28;20276;-63
2024/02/22 00:54:53;;;;;;;0.55;0.47;;;;;;;10.95;100.00;95104.72;1039100;28;20040;-62
2024/02/22 00:55:24;;;;;;;0.70;0.47;;;;;;;10.92;100.00;95110.53;1034999;28;20033;-64
2024/02/22 00:55:54;;;;;;;0.38;0.35;;;;;;;10.85;100.00;95108.22;1034732;28;20700;-64
2024/02/22 00:56:25;;;;;;;0.50;0.50;;;;;;;10.84;100.00;95098.03;1034968;28;20018;-63
2024/02/22 00:56:55;;;;;;;0.82;0.52;;;;;;;10.85;100.00;95118.72;1029521;28;20037;-63
2024/02/22 00:57:26;;;;;;;0.40;0.40;;;;;;;10.90;100.00;95107.41;1031769;28;20022;-63
2024/02/22 00:57:56;;;;;;;0.52;0.32;;;;;;;10.95;100.00;95102.09;1043037;28;20028;-64
2024/02/22 00:58:27;;;;;;;1.08;0.32;;;;;;;11.04;100.00;95107.50;1043142;28;20029;-63
2024/02/22 00:58:57;;;;;;;0.50;0.40;;;;;;;11.14;100.00;95106.63;1039327;28;20017;-64
2024/02/22 00:59:32;;;;;;;1.38;0.50;;;;;;;11.11;100.00;95104.56;1040784;28;20509;-64
2024/02/22 01:00:03;;;;;;;1.27;0.65;;;;;;;11.10;100.00;95080.16;1042969;28;20095;-63
2024/02/22 01:00:33;;;;;;;0.75;0.45;;;;;;;11.13;100.00;95097.94;1041788;28;20276;-65
2024/02/22 01:01:04;;;;;;;2.55;0.55;;;;;;;11.13;100.00;95100.56;1043131;28;20021;-63
2024/02/22 01:01:34;;;;;;;0.88;0.60;;;;;;;11.08;100.00;95103.25;1043086;28;20024;-64
2024/02/22 01:02:05;;;;;;;0.55;0.45;;;;;;;11.01;100.00;95094.94;1041363;28;20032;-63
2024/02/22 01:02:35;;;;;;;0.63;0.50;;;;;;;10.94;100.00;95100.53;1041104;28;20032;-63
2024/02/22 01:03:06;;;;;;;0.30;0.30;;;;;;;10.94;100.00;95102.38;1043208;28;20504;-62
2024/02/22 01:03:37;;;;;;;1.13;0.50;;;;;;;10.89;100.00;95095.34;1038508;28;20030;-64
2024/02/22 01:04:10;;;;;;;0.95;0.40;;;;;;;10.92;100.00;95100.03;1028342;28;20019;-63
2024/02/22 01:04:40;;;;;;;0.45;0.45;;;;;;;10.94;100.00;95100.53;1033825;28;20038;-64
2024/02/22 01:05:10;;;;;;;0.80;0.43;;;;;;;10.95;100.00;95104.72;1031284;28;20023;-63
2024/02/22 01:05:41;;;;;;;0.70;0.30;;;;;;;10.98;100.00;95093.66;1035439;28;20025;-63
2024/02/22 01:06:13;;;;;;;1.80;0.60;;;;;;;10.95;100.00;95088.97;1041621;28;20120;-64
2024/02/22 01:06:44;;;;;;;0.52;0.40;;;;;;;10.97;100.00;95104.44;1038228;28;20036;-63
2024/02/22 01:07:14;;;;;;;0.30;0.30;;;;;;;11.00;100.00;95086.28;1039972;28;20056;-63
2024/02/22 01:07:45;;;;;;;0.82;0.50;;;;;;;11.15;100.00;95074.03;1034330;28;20034;-62
2024/02/22 01:08:15;;;;;;;1.40;0.70;;;;;;;11.16;100.00;95088.72;1034721;28;20018;-63
2024/02/22 01:08:46;;;;;;;0.55;0.40;;;;;;;11.13;100.00;95078.78;1038587;28;20025;-63
2024/02/22 01:09:16;;;;;;;0.75;0.45;;;;;;;11.09;100.00;95078.56;1032655;28;20022;-63
2024/02/22 01:09:47;;;;;;;2.08;0.70;;;;;;;11.08;100.00;95085.66;1042998;28;20025;-61
2024/02/22 01:10:18;;;;;;;0.80;0.50;;;;;;;11.05;100.00;95090.69;1038426;28;20025;-63
2024/02/22 01:10:49;;;;;;;1.45;0.47;;;;;;;11.11;100.00;95088.78;1038807;28;20026;-63
2024/02/22 01:11:19;;;;;;;1.50;0.40;;;;;;;11.09;100.00;95083.81;1035072;28;20057;-63
2024/02/22 01:11:49;;;;;;;0.75;0.35;;;;;;;11.12;100.00;95069.34;1031033;28;20093;-63
2024/02/22 01:12:20;;;;;;;1.48;0.50;;;;;;;11.07;100.00;95070.97;1036366;28;20100;-64
2024/02/22 01:12:50;;;;;;;1.40;0.60;;;;;;;11.01;100.00;95077.34;1039224;28;20045;-65
2024/02/22 01:13:22;;;;;;;2.85;0.57;;;;;;;11.01;100.00;95081.81;1039277;28;20032;-64
2024/02/22 01:13:53;;;;;;;0.73;0.30;;;;;;;10.98;100.00;95077.91;1043402;28;20492;-63
2024/02/22 01:14:23;;;;;;;0.88;0.40;;;;;;;10.96;100.00;95071.38;1036469;28;20061;-63
2024/02/22 01:14:54;;;;;;;2.63;0.65;;;;;;;11.00;100.00;95070.53;1039067;28;20069;-62
2024/02/22 01:15:24;;;;;;;2.25;0.35;;;;;;;11.07;100.00;95059.69;1039056;28;20038;-63
2024/02/22 01:15:55;;;;;;;1.88;0.70;;;;;;;11.12;100.00;95072.75;1039123;28;20067;-63
2024/02/22 01:16:25;;;;;;;0.50;0.40;;;;;;;11.07;100.00;95080.69;1043030;28;20108;-63
2024/02/22 01:16:56;;;;;;;0.50;0.50;;;;;;;11.06;100.00;95069.41;1043252;28;20048;-62
2024/02/22 01:17:26;;;;;;;0.70;0.70;;;;;;;11.02;100.00;95068.41;1043018;28;20033;-63
2024/02/22 01:17:57;;;;;;;0.90;0.30;;;;;;;10.99;100.00;95068.97;1041143;28;20450;-63
2024/02/22 01:18:27;;;;;;;1.08;0.40;;;;;;;11.09;100.00;95081.19;1039489;28;20029;-63
2024/02/22 01:18:58;;;;;;;1.05;0.85;;;;;;;11.08;100.00;95054.16;1038148;28;20029;-63
2024/02/22 01:19:28;;;;;;;0.93;0.47;;;;;;;11.08;100.00;95080.41;1036083;28;20597;-64
2024/02/22 01:19:59;;;;;;;1.02;0.30;;;;;;;11.11;100.00;95070.41;1030910;28;20073;-64
2024/02/22 01:20:29;;;;;;;0.60;0.40;;;;;;;11.16;100.00;95070.34;1026828;28;20031;-61
2024/02/22 01:20:59;;;;;;;0.77;0.43;;;;;;;11.13;100.00;95063.78;1026861;28;20082;-63
2024/02/22 01:21:30;;;;;;;1.17;0.40;;;;;;;11.16;100.00;95052.72;1026998;28;20137;-64
2024/02/22 01:22:02;;;;;;;0.98;0.60;;;;;;;11.12;100.00;95050.97;1031003;28;20086;-64
2024/02/22 01:22:32;;;;;;;0.50;0.40;;;;;;;11.04;100.00;95055.78;1036921;28;20057;-64
2024/02/22 01:23:06;;;;;;;1.38;0.50;;;;;;;11.03;100.00;95056.84;1034976;28;20042;-62
2024/02/22 01:23:36;;;;;;;2.22;0.63;;;;;;;11.00;100.00;95054.78;1041216;28;20047;-62
2024/02/22 01:24:07;;;;;;;1.35;0.40;;;;;;;10.97;100.00;95047.47;1042625;28;20041;-64
2024/02/22 01:24:37;;;;;;;1.20;0.47;;;;;;;10.97;100.00;95057.19;1038664;28;20025;-63
2024/02/22 01:25:08;;;;;;;1.45;0.65;;;;;;;10.92;100.00;95047.53;1038967;28;20041;-63
2024/02/22 01:25:39;;;;;;;1.10;0.47;;;;;;;10.86;100.00;95051.28;1037991;28;20030;-63
2024/02/22 01:26:10;;;;;;;1.40;0.50;;;;;;;10.84;100.00;95046.31;1034493;28;20513;-63
2024/02/22 01:26:40;;;;;;;0.75;0.50;;;;;;;10.83;100.00;95046.56;1037969;28;20033;-64
2024/02/22 01:27:11;;;;;;;0.65;0.60;;;;;;;10.81;100.00;95052.13;1038719;28;20025;-63
2024/02/22 01:27:42;;;;;;;0.80;0.60;;;;;;;10.81;100.00;95049.50;1034489;28;20033;-64
2024/02/22 01:28:13;;;;;;;1.88;0.70;;;;;;;10.89;100.00;95042.06;1035216;28;20026;-64
2024/02/22 01:28:43;;;;;;;1.63;0.60;;;;;;;10.93;100.00;95046.47;1042126;28;20527;-63
2024/02/22 01:29:14;;;;;;;1.55;0.60;;;;;;;10.88;100.00;95046.53;1041858;28;20094;-64
2024/02/22 01:29:44;;;;;;;0.77;0.40;;;;;;;10.93;100.00;95043.84;1042984;28;20029;-63
2024/02/22 01:30:15;;;;;;;1.45;0.60;;;;;;;10.91;100.00;95040.72;1034223;28;20041;-64
2024/02/22 01:30:45;;;;;;;1.23;0.55;;;;;;;10.88;100.00;95033.41;1033172;28;20621;-63
2024/02/22 01:31:16;;;;;;;0.75;0.50;;;;;;;10.89;100.00;95037.59;1026364;28;20434;-63
2024/02/22 01:31:46;;;;;;;1.08;0.63;;;;;;;10.89;100.00;95034.19;1026749;28;20493;-63
2024/02/22 01:32:16;;;;;;;0.70;0.50;;;;;;;10.91;100.00;95039.94;1034978;28;20065;-64
2024/02/22 01:32:50;;;;;;;0.60;0.40;;;;;;;10.94;100.00;95034.91;1031074;28;20053;-63
2024/02/22 01:33:20;;;;;;;1.90;0.50;;;;;;;10.95;100.00;95025.97;1035311;28;20520;-62
2024/02/22 01:33:51;;;;;;;3.92;0.43;;;;;;;11.02;100.00;95021.16;1034695;28;20025;-64
2024/02/22 01:34:21;;;;;;;1.10;0.45;;;;;;;11.01;100.00;95031.94;1033275;28;20030;-63
2024/02/22 01:34:53;;;;;;;0.57;0.57;;;;;;;11.01;100.00;95039.81;1039063;28;20370;-63
2024/02/22 01:35:24;;;;;;;0.70;0.35;;;;;;;10.98;100.00;95027.25;1039087;28;20036;-62
2024/02/22 01:35:54;;;;;;;1.02;0.50;;;;;;;10.95;100.00;95028.59;1041286;28;20032;-63
2024/02/22 01:36:24;;;;;;;1.30;0.50;;;;;;;10.98;100.00;95016.75;1043065;28;20033;-63
2024/02/22 01:36:55;;;;;;;2.70;0.77;;;;;;;11.02;100.00;95015.13;1043118;28;20032;-64
2024/02/22 01:37:26;;;;;;;1.40;0.70;;;;;;;11.00;100.00;95007.53;1032961;28;20033;-61
2024/02/22 01:37:56;;;;;;;1.02;0.68;;;;;;;10.99;100.00;95019.09;1029960;28;20489;-64
2024/02/22 01:38:27;;;;;;;1.02;0.60;;;;;;;11.00;100.00;95012.00;1032744;28;20034;-63
2024/02/22 01:38:57;;;;;;;1.50;0.50;;;;;;;10.94;100.00;95003.41;1028973;28;20236;-63
2024/02/22 01:39:28;;;;;;;2.80;0.57;;;;;;;10.93;100.00;95009.75;1036395;28;20033;-64
2024/02/22 01:39:58;;;;;;;1.15;0.60;;;;;;;10.91;100.00;95011.84;1037149;28;20076;-63
2024/02/22 01:40:28;;;;;;;0.70;0.50;;;;;;;10.87;100.00;95010.84;1035445;28;20033;-63
2024/02/22 01:40:59;;;;;;;1.70;0.50;;;;;;;10.91;100.00;95003.97;1041548;28;20594;-63
2024/02/22 01:41:29;;;;;;;0.50;0.50;;;;;;;10.90;100.00;94997.19;1043174;28;20029;-61
2024/02/22 01:42:00;;;;;;;0.93;0.57;;;;;;;10.88;100.00;94986.16;1042890;28;20028;-63
2024/02/22 01:42:30;;;;;;;2.67;0.70;;;;;;;10.89;100.00;94985.09;1041917;28;20037;-62
2024/02/22 01:43:01;;;;;;;0.70;0.50;;;;;;;10.92;100.00;94997.66;1041731;28;20032;-64
2024/02/22 01:43:32;;;;;;;2.00;0.85;;;;;;;10.86;100.00;94998.78;1038694;28;20029;-63
2024/02/22 01:44:02;;;;;;;1.65;0.70;;;;;;;10.83;100.00;95001.97;1038596;28;20021;-63
2024/02/22 01:44:33;;;;;;;1.30;0.50;;;;;;;10.85;100.00;94979.63;1032445;28;20036;-64
2024/02/22 01:45:04;;;;;;;1.25;0.50;;;;;;;10.85;100.00;94973.59;1034880;28;20038;-63
2024/02/22 01:45:35;;;;;;;0.88;0.55;;;;;;;10.83;100.00;94980.97;1034648;28;20040;-63
2024/02/22 01:46:06;;;;;;;1.80;0.73;;;;;;;10.83;100.00;94983.59;1030612;28;20130;-63
2024/02/22 01:46:37;;;;;;;1.00;0.60;;;;;;;10.92;100.00;94981.91;1030404;28;20041;-62
2024/02/22 01:47:07;;;;;;;4.07;0.60;;;;;;;10.96;100.00;94984.75;1031201;28;20037;-62
2024/02/22 01:47:38;;;;;;;0.60;0.57;;;;;;;11.00;100.00;94977.84;1030528;28;20034;-63
2024/02/22 01:48:08;;;;;;;0.82;0.60;;;;;;;10.97;100.00;94971.34;1034793;28;20034;-63
2024/02/22 01:48:39;;;;;;;2.65;0.50;;;;;;;10.89;100.00;94963.31;1034618;28;20026;-63
2024/02/22 01:49:09;;;;;;;0.47;0.40;;;;;;;10.90;100.00;94978.81;1026588;28;20038;-61
2024/02/22 01:49:40;;;;;;;0.75;0.60;;;;;;;10.89;100.00;94960.69;1026770;28;20042;-63
2024/02/22 01:50:10;;;;;;;1.05;0.68;;;;;;;10.88;100.00;94977.50;1025931;28;20037;-63
2024/02/22 01:50:41;;;;;;;1.33;0.57;;;;;;;10.85;100.00;94973.59;1030577;28;20564;-64
2024/02/22 01:51:11;;;;;;;1.65;0.55;;;;;;;10.83;100.00;94955.53;1030837;28;20455;-64
2024/02/22 01:51:42;;;;;;;2.10;0.52;;;;;;;10.82;100.00;94956.56;1030095;28;20026;-63
2024/02/22 01:52:12;;;;;;;0.50;0.50;;;;;;;10.77;100.00;94966.38;1030205;28;20666;-63
2024/02/22 01:52:43;;;;;;;2.15;0.50;;;;;;;10.79;100.00;94948.50;1030656;28;20092;-63
2024/02/22 01:53:13;;;;;;;0.77;0.60;;;;;;;10.82;100.00;94945.31;1026450;28;20094;-64
2024/02/22 01:53:44;;;;;;;1.55;0.60;;;;;;;10.81;100.00;94946.38;1026822;28;20031;-64
2024/02/22 01:54:14;;;;;;;0.57;0.50;;;;;;;10.82;100.00;94945.31;1030644;28;20033;-64
2024/02/22 01:54:45;;;;;;;0.95;0.52;;;;;;;10.84;100.00;94930.06;1033299;28;20671;-63
2024/02/22 01:55:17;;;;;;;0.40;0.40;;;;;;;10.84;100.00;94930.06;1028402;28;20627;-64
2024/02/22 01:55:48;;;;;;;0.98;0.50;;;;;;;10.86;100.00;94948.91;1026652;28;20026;-63
2024/02/22 01:56:19;;;;;;;3.50;0.95;;;;;;;10.89;100.00;94929.97;1026418;28;20027;-64
2024/02/22 01:56:50;;;;;;;0.68;0.60;;;;;;;10.87;100.00;94933.97;1023244;28;20119;-63
2024/02/22 01:57:21;;;;;;;0.80;0.50;;;;;;;10.91;100.00;94940.22;1027323;28;20045;-62
2024/02/22 01:57:52;;;;;;;1.08;0.47;;;;;;;10.89;100.00;94937.84;1026439;28;20455;-63
2024/02/22 01:58:22;;;;;;;0.77;0.60;;;;;;;10.82;100.00;94935.56;1027040;28;20038;-63
2024/02/22 01:58:53;;;;;;;1.25;0.50;;;;;;;10.84;100.00;94938.72;1033965;28;20033;-63
2024/02/22 01:59:23;;;;;;;1.23;0.60;;;;;;;10.82;100.00;94945.31;1031175;28;20034;-64
2024/02/22 01:59:54;;;;;;;1.15;0.63;;;;;;;10.78;100.00;94947.72;1034669;28;20026;-64
2024/02/22 02:00:24;;;;;;;4.07;0.50;;;;;;;10.81;100.00;94941.91;1026040;28;20030;-63
2024/02/22 02:00:55;;;;;;;1.10;0.60;;;;;;;10.84;100.00;94961.56;1026827;28;20034;-64
2024/02/22 02:01:26;;;;;;;0.73;0.50;;;;;;;10.88;100.00;94948.66;1022453;28;20603;-62
2024/02/22 02:01:58;;;;;;;1.17;0.73;;;;;;;10.85;100.00;94948.13;1027248;28;20065;-62
2024/02/22 02:02:29;;;;;;;1.55;0.47;;;;;;;10.82;100.00;94950.56;1034920;28;20033;-63
2024/02/22 02:03:00;;;;;;;1.00;0.63;;;;;;;10.78;100.00;94942.47;1038632;28;20515;-63
2024/02/22 02:03:30;;;;;;;1.33;0.40;;;;;;;10.76;100.00;94946.44;1040678;28;20029;-63
2024/02/22 02:04:01;;;;;;;0.52;0.47;;;;;;;10.71;100.00;94941.25;1038866;28;20329;-63
2024/02/22 02:04:31;;;;;;;0.90;0.60;;;;;;;10.67;100.00;94933.19;1026332;28;20034;-64
2024/02/22 02:05:02;;;;;;;0.60;0.50;;;;;;;10.68;100.00;94944.44;1025245;28;20025;-64
2024/02/22 02:05:32;;;;;;;0.52;0.30;;;;;;;10.68;100.00;94937.34;1027776;28;20027;-64
2024/02/22 02:06:03;;;;;;;1.42;0.60;;;;;;;10.58;100.00;94935.63;1027041;28;20034;-63
2024/02/22 02:06:33;;;;;;;2.85;0.43;;;;;;;10.61;100.00;94936.91;1030646;28;20027;-64
2024/02/22 02:07:04;;;;;;;1.13;0.50;;;;;;;10.58;100.00;94940.88;1035618;28;20022;-63
2024/02/22 02:07:35;;;;;;;0.60;0.60;;;;;;;10.57;100.00;94931.47;1037626;28;20022;-64
2024/02/22 02:08:06;;;;;;;1.60;0.35;;;;;;;10.65;100.00;94931.88;1032371;28;20273;-65
2024/02/22 02:08:38;;;;;;;0.93;0.50;;;;;;;10.65;100.00;94942.38;1034186;28;20030;-63
2024/02/22 02:09:09;;;;;;;1.85;0.50;;;;;;;10.64;100.00;94930.34;1027075;28;20506;-64
2024/02/22 02:09:39;;;;;;;0.68;0.50;;;;;;;10.60;100.00;94938.78;1022851;28;20037;-63
2024/02/22 02:10:10;;;;;;;0.75;0.43;;;;;;;10.60;100.00;94935.38;1018821;28;20032;-62
2024/02/22 02:10:40;;;;;;;1.25;0.40;;;;;;;10.57;100.00;94941.94;1022473;28;20051;-63
2024/02/22 02:11:11;;;;;;;0.60;0.50;;;;;;;10.56;100.00;94940.41;1026654;28;20085;-63
2024/02/22 02:11:41;;;;;;;1.90;0.40;;;;;;;10.55;100.00;94944.06;1033316;28;20030;-63
2024/02/22 02:12:13;;;;;;;0.73;0.50;;;;;;;10.54;100.00;94941.75;1042938;28;20036;-64
2024/02/22 02:12:43;;;;;;;0.57;0.50;;;;;;;10.51;100.00;94942.28;1042626;28;20482;-63
2024/02/22 02:13:13;;;;;;;1.23;0.40;;;;;;;10.51;100.00;94953.56;1040285;28;20033;-64
2024/02/22 02:13:44;;;;;;;2.13;0.85;;;;;;;10.60;100.00;94941.38;1041951;28;20295;-63
2024/02/22 02:14:14;;;;;;;0.95;0.45;;;;;;;10.64;100.00;94943.47;1042812;28;20069;-63
2024/02/22 02:14:45;;;;;;;1.10;0.82;;;;;;;10.66;100.00;94951.81;1038707;28;20472;-63
2024/02/22 02:15:15;;;;;;;1.38;0.70;;;;;;;10.61;100.00;94942.16;1035083;28;20029;-63
2024/02/22 02:15:46;;;;;;;0.77;0.57;;;;;;;10.56;100.00;94943.03;1034152;28;20037;-64
2024/02/22 02:16:16;;;;;;;0.50;0.50;;;;;;;10.54;100.00;94945.13;1034559;28;20037;-62
2024/02/22 02:16:47;;;;;;;0.90;0.60;;;;;;;10.53;100.00;94940.97;1038745;28;20025;-62
2024/02/22 02:17:17;;;;;;;0.98;0.25;;;;;;;10.51;100.00;94958.03;1038442;28;20036;-63
2024/02/22 02:17:48;;;;;;;0.73;0.73;;;;;;;10.48;100.00;94954.13;1039949;28;20059;-63
2024/02/22 02:18:19;;;;;;;1.25;0.57;;;;;;;10.45;100.00;94959.16;1038757;28;20477;-64
2024/02/22 02:18:49;;;;;;;0.55;0.50;;;;;;;10.40;100.00;94960.00;1042561;28;20227;-62
2024/02/22 02:19:20;;;;;;;0.43;0.43;;;;;;;10.25;100.00;94937.31;1036369;28;20033;-63
2024/02/22 02:19:55;;;;;;;0.95;0.45;;;;;;;10.44;100.00;94958.38;1034797;28;20034;-63
2024/02/22 02:20:28;;;;;;;0.60;0.47;;;;;;;10.38;100.00;94951.63;1027661;28;20042;-63
2024/02/22 02:21:13;;;;;;;2.47;0.55;;;;;;;10.39;100.00;94945.31;1027452;28;20033;-63
2024/02/22 02:22:11;;;;;;;1.65;0.30;;;;;;;10.21;100.00;94935.53;1026683;28;20023;-64
2024/02/22 02:22:47;;;;;;;0.82;0.47;;;;;;;10.32;100.00;94952.75;1031137;28;20050;-63
2024/02/22 02:23:48;;;;;;;1.10;0.40;;;;;;;10.36;100.00;94945.88;1036152;28;20418;-63
2024/02/22 02:24:40;;;;;;;0.57;0.43;;;;;;;10.37;100.00;94942.19;1037111;28;20032;-63